Maimiti — PBIJ — position and weather

sailwx.info

Track history (hours):
 
Tides and Currents Weather Stations Pressure Air Temp Water Temp Dewpoint Dewpoint Depression Visibility Wind Speed Wind Dir Waves Ship Positions

Maimiti

Last reported at 2017-Apr-29 05:47 UTC. Time now 2017-Apr-29 09:24 UTC.
Position N 53°05' E 002°33'.

Length 35 m; draft 7.1 m.

Type: Tug. MMSI: 244850959.

Date/timePositionNaut miles runAvg speedWind from/ knotsBaromVisibWave heightAir tempDewpointWater temp
2017-Apr-29 05:47N 53°05' E 002°33'72 6.7
2017-Apr-28 19:02N 52°06' E 003°40'1 8.4
2017-Apr-28 18:57N 52°06' E 003°41'4 8.4
2017-Apr-28 18:30N 52°04' E 003°47'4 8.1
2017-Apr-28 18:01N 52°04' E 003°53'2 4.0
2017-Apr-28 17:31N 52°02' E 003°55'3 5.9
2017-Apr-28 17:00N 52°01' E 003°59'4 8.1
2017-Apr-28 16:31N 51°59' E 004°05'4 7.2
2017-Apr-28 16:01N 51°57' E 004°10'3 5.9
2017-Apr-28 15:30N 51°55' E 004°14'2 5.0
2017-Apr-28 15:01N 51°54' E 004°17'6 5.6
2017-Apr-28 14:01N 51°53' E 004°27'0 0.9
2017-Apr-28 13:31N 51°53' E 004°27'0 0.0
2017-Apr-28 13:01N 51°53' E 004°27'0 0.0
2017-Apr-28 12:31N 51°53' E 004°27'0 0.0
2017-Apr-28 12:00N 51°53' E 004°27'0 0.0
2017-Apr-28 11:31N 51°53' E 004°27'0 0.0
2017-Apr-28 11:01N 51°53' E 004°27'0 0.0
2017-Apr-28 10:31N 51°53' E 004°27'0 0.1
2017-Apr-28 10:01N 51°53' E 004°27'0 0.0
2017-Apr-28 09:30N 51°53' E 004°27'0 0.0
2017-Apr-28 09:01N 51°53' E 004°27'0 0.0
2017-Apr-28 08:30N 51°53' E 004°27'0 0.0
2017-Apr-28 08:01N 51°53' E 004°27'0 0.0
2017-Apr-28 07:30N 51°53' E 004°27'0 0.0
2017-Apr-28 07:01N 51°53' E 004°27'0 0.0
2017-Apr-28 06:30N 51°53' E 004°27'0 0.1
2017-Apr-28 06:01N 51°53' E 004°27'0 0.0
2017-Apr-28 05:31N 51°53' E 004°27'0 0.0
2017-Apr-28 05:01N 51°53' E 004°27'0 0.0
2017-Apr-28 04:31N 51°53' E 004°27'0 0.0
2017-Apr-28 04:00N 51°53' E 004°27'0 0.0
2017-Apr-28 03:31N 51°53' E 004°27'0 0.0
2017-Apr-28 03:01N 51°53' E 004°27'0 0.0
2017-Apr-28 02:31N 51°53' E 004°27'0 0.0
2017-Apr-28 01:31N 51°53' E 004°27'0 0.0
2017-Apr-28 01:01N 51°53' E 004°27'0 0.0
2017-Apr-28 00:31N 51°53' E 004°27'0 0.0
2017-Apr-28 00:01N 51°53' E 004°27'0 0.0
2017-Apr-27 23:31N 51°53' E 004°27'0 0.0
2017-Apr-27 23:00N 51°53' E 004°27'0 0.0
2017-Apr-27 22:31N 51°53' E 004°27'0 0.0
2017-Apr-27 22:01N 51°53' E 004°27'0 0.0
2017-Apr-27 21:31N 51°53' E 004°27'0 0.0
2017-Apr-27 21:01N 51°53' E 004°27'0 0.0
2017-Apr-27 20:31N 51°53' E 004°27'0 0.0
2017-Apr-27 20:01N 51°53' E 004°27'0 0.0
2017-Apr-27 19:31N 51°53' E 004°27'0 0.0
2017-Apr-27 19:01N 51°53' E 004°27'0 0.0
2017-Apr-27 18:31N 51°53' E 004°27'0 0.0
2017-Apr-27 17:31N 51°53' E 004°27'0 0.0
2017-Apr-27 17:01N 51°53' E 004°27'0 0.0
2017-Apr-27 16:31N 51°53' E 004°27'0 0.0
2017-Apr-27 16:01N 51°53' E 004°27'0 0.0
2017-Apr-27 15:31N 51°53' E 004°27'0 0.0
2017-Apr-27 15:01N 51°53' E 004°27'0 0.0
2017-Apr-27 14:01N 51°53' E 004°27'0 0.0
2017-Apr-27 13:31N 51°53' E 004°27'0 0.0
2017-Apr-27 13:01N 51°53' E 004°27'0 0.0
2017-Apr-27 12:31N 51°53' E 004°27'0 0.0
2017-Apr-27 12:01N 51°53' E 004°27'0 0.0
2017-Apr-27 11:31N 51°53' E 004°27'0 0.0
2017-Apr-27 11:01N 51°53' E 004°27'0 0.0
2017-Apr-27 10:31N 51°53' E 004°27'0 0.0
2017-Apr-27 10:01N 51°53' E 004°27'0 0.0
2017-Apr-27 09:31N 51°53' E 004°27'0 0.0
2017-Apr-27 09:01N 51°53' E 004°27'0 0.0
2017-Apr-27 08:31N 51°53' E 004°27'0 0.0
2017-Apr-27 08:01N 51°53' E 004°27'0 0.0
2017-Apr-27 07:31N 51°53' E 004°27'0 0.0
2017-Apr-27 07:01N 51°53' E 004°27'0 0.0
2017-Apr-27 06:31N 51°53' E 004°27'0 0.0
2017-Apr-27 06:01N 51°53' E 004°27'0 0.0
2017-Apr-27 05:31N 51°53' E 004°27'0 0.0
2017-Apr-27 05:01N 51°53' E 004°27'0 0.0
2017-Apr-27 04:30N 51°53' E 004°27'0 0.0
2017-Apr-27 04:01N 51°53' E 004°27'0 0.0
2017-Apr-27 03:31N 51°53' E 004°27'0 0.0
2017-Apr-27 03:01N 51°53' E 004°27'0 0.0
2017-Apr-27 02:30N 51°53' E 004°27'0 0.0
2017-Apr-27 02:01N 51°53' E 004°27'0 0.0
2017-Apr-27 01:31N 51°53' E 004°27'0 0.0
2017-Apr-27 01:01N 51°53' E 004°27'0 0.0
2017-Apr-27 00:31N 51°53' E 004°27'0 0.0
2017-Apr-27 00:01N 51°53' E 004°27'0 0.0
2017-Apr-26 23:31N 51°53' E 004°27'0 0.0
2017-Apr-26 23:01N 51°53' E 004°27'0 0.0
2017-Apr-26 22:30N 51°53' E 004°27'0 0.0
2017-Apr-26 22:01N 51°53' E 004°27'0 0.0
2017-Apr-26 21:31N 51°53' E 004°27'0 0.0
2017-Apr-26 21:01N 51°53' E 004°27'0 0.0
2017-Apr-26 20:31N 51°53' E 004°27'0 0.0
2017-Apr-26 20:01N 51°53' E 004°27'0 0.0
2017-Apr-26 19:31N 51°53' E 004°27'0 0.0
2017-Apr-26 19:01N 51°53' E 004°27'0 0.0
2017-Apr-26 18:30N 51°53' E 004°27'0 0.0
2017-Apr-26 18:01N 51°53' E 004°27'0 0.0
2017-Apr-26 17:31N 51°53' E 004°27'0 0.0
2017-Apr-26 17:01N 51°53' E 004°27'0 0.0
2017-Apr-26 16:31N 51°53' E 004°27'0 0.0
2017-Apr-26 16:01N 51°53' E 004°27'0 0.0
2017-Apr-26 15:31N 51°53' E 004°27'0 0.0
2017-Apr-26 15:01N 51°53' E 004°27'0 0.0
2017-Apr-26 14:31N 51°53' E 004°27'0 0.0
2017-Apr-26 13:31N 51°53' E 004°27'0 0.0
2017-Apr-26 13:01N 51°53' E 004°27'0 0.0
2017-Apr-26 12:31N 51°53' E 004°27'0 0.0
2017-Apr-26 12:00N 51°53' E 004°27'0 0.0
2017-Apr-26 11:31N 51°53' E 004°27'0 0.0
2017-Apr-26 11:00N 51°53' E 004°27'0 0.0
2017-Apr-26 10:31N 51°53' E 004°27'0 0.0
2017-Apr-26 10:01N 51°53' E 004°27'0 0.0
2017-Apr-26 09:31N 51°53' E 004°27'0 0.0
2017-Apr-26 09:01N 51°53' E 004°27'0 0.0
2017-Apr-26 08:31N 51°53' E 004°27'0 0.1
2017-Apr-26 08:00N 51°53' E 004°27'0 0.0
2017-Apr-26 07:31N 51°53' E 004°27'0 0.0
2017-Apr-26 07:01N 51°53' E 004°27'0 0.0
2017-Apr-26 06:31N 51°53' E 004°27'0 0.0
2017-Apr-26 06:01N 51°53' E 004°27'0 0.0
2017-Apr-26 05:31N 51°53' E 004°27'0 0.0
2017-Apr-26 05:01N 51°53' E 004°27'0 0.0
2017-Apr-26 04:31N 51°53' E 004°27'0 0.0
2017-Apr-26 04:01N 51°53' E 004°27'0 0.0
2017-Apr-26 03:31N 51°53' E 004°27'0 0.0
2017-Apr-26 03:00N 51°53' E 004°27'0 0.0
2017-Apr-26 02:31N 51°53' E 004°27'0 0.0
2017-Apr-26 02:00N 51°53' E 004°27'0 0.0
2017-Apr-26 01:30N 51°53' E 004°27'0 0.0
2017-Apr-26 01:01N 51°53' E 004°27'0 0.0
2017-Apr-26 00:31N 51°53' E 004°27'0 0.0
2017-Apr-26 00:01N 51°53' E 004°27'0 0.0
2017-Apr-25 23:30N 51°53' E 004°27'0 0.0
2017-Apr-25 22:31N 51°53' E 004°27'0 0.0
2017-Apr-25 22:01N 51°53' E 004°27'0 0.0
2017-Apr-25 21:31N 51°53' E 004°27'0 0.0
2017-Apr-25 21:01N 51°53' E 004°27'0 0.0
2017-Apr-25 20:31N 51°53' E 004°27'0 0.0
2017-Apr-25 20:01N 51°53' E 004°27'0 0.0
2017-Apr-25 19:30N 51°53' E 004°27'0 0.0
2017-Apr-25 19:01N 51°53' E 004°27'0 0.0
2017-Apr-25 18:31N 51°53' E 004°27'0 0.0
2017-Apr-25 18:01N 51°53' E 004°27'0 0.0
2017-Apr-25 17:31N 51°53' E 004°27'0 0.0
2017-Apr-25 17:01N 51°53' E 004°27'0 0.0
2017-Apr-25 16:31N 51°53' E 004°27'0 0.0
2017-Apr-25 16:01N 51°53' E 004°27'0 0.0
2017-Apr-25 15:31N 51°53' E 004°27'0 0.0
2017-Apr-25 15:00N 51°53' E 004°27'1 1.5
2017-Apr-25 14:01N 51°54' E 004°25'0 0.0
2017-Apr-25 13:31N 51°54' E 004°25'0 0.0
2017-Apr-25 13:01N 51°54' E 004°25'0 0.0
2017-Apr-25 12:31N 51°54' E 004°25'0 0.0
2017-Apr-25 12:00N 51°54' E 004°25'0 0.0
2017-Apr-25 11:31N 51°54' E 004°25'0 0.0
2017-Apr-25 11:01N 51°54' E 004°25'0 0.0
2017-Apr-25 10:31N 51°54' E 004°25'0 0.0
2017-Apr-25 10:00N 51°54' E 004°25'0 0.0
2017-Apr-25 09:31N 51°54' E 004°25'0 0.0
2017-Apr-25 09:00N 51°54' E 004°25'0 0.0
2017-Apr-25 08:31N 51°54' E 004°25'0 0.0
2017-Apr-25 08:01N 51°54' E 004°25'0 0.0
2017-Apr-25 07:31N 51°54' E 004°25'0 0.0
2017-Apr-25 07:01N 51°54' E 004°25'0 0.0
2017-Apr-25 06:31N 51°54' E 004°25'0 0.0
2017-Apr-25 06:00N 51°54' E 004°25'1 2.8
2017-Apr-25 05:31N 51°53' E 004°27'0 0.2
2017-Apr-25 05:01N 51°53' E 004°27'0 0.0
2017-Apr-25 04:30N 51°53' E 004°27'0 0.0
2017-Apr-25 04:01N 51°53' E 004°27'0 0.0
2017-Apr-25 03:31N 51°53' E 004°27'0 0.0
2017-Apr-25 03:01N 51°53' E 004°27'0 0.0
2017-Apr-25 02:31N 51°53' E 004°27'0 0.0
2017-Apr-25 02:00N 51°53' E 004°27'0 0.0
2017-Apr-25 01:30N 51°53' E 004°27'0 0.0
2017-Apr-25 01:01N 51°53' E 004°27'0 0.0
2017-Apr-25 00:31N 51°53' E 004°27'0 0.0
2017-Apr-25 00:00N 51°53' E 004°27'0 0.0
2017-Apr-24 23:31N 51°53' E 004°27'0 0.0
2017-Apr-24 23:01N 51°53' E 004°27'0 0.0
2017-Apr-24 22:31N 51°53' E 004°27'0 0.0
2017-Apr-24 22:00N 51°53' E 004°27'0 0.0
2017-Apr-24 21:31N 51°53' E 004°27'0 0.0
2017-Apr-24 21:00N 51°53' E 004°27'0 0.0
2017-Apr-24 20:31N 51°53' E 004°27'0 0.0
2017-Apr-24 20:01N 51°53' E 004°27'0 0.0
2017-Apr-24 19:31N 51°53' E 004°27'0 0.0
2017-Apr-24 19:01N 51°53' E 004°27'0 0.0
2017-Apr-24 18:31N 51°53' E 004°27'0 0.0
2017-Apr-24 18:01N 51°53' E 004°27'0 0.0
2017-Apr-24 17:31N 51°53' E 004°27'0 0.0
2017-Apr-24 17:00N 51°53' E 004°27'0 0.0
2017-Apr-24 16:31N 51°53' E 004°27'0 0.0
2017-Apr-24 16:01N 51°53' E 004°27'0 0.0
2017-Apr-24 15:31N 51°53' E 004°27'0 0.0
2017-Apr-24 15:01N 51°53' E 004°27'0 0.0
2017-Apr-24 14:31N 51°53' E 004°27'0 0.0
2017-Apr-24 13:30N 51°53' E 004°27'0 0.0
2017-Apr-24 13:01N 51°53' E 004°27'0 0.0
2017-Apr-24 12:31N 51°53' E 004°27'0 0.0
2017-Apr-24 12:01N 51°53' E 004°27'0 0.0
2017-Apr-24 11:31N 51°53' E 004°27'0 0.0
2017-Apr-24 11:01N 51°53' E 004°27'0 0.0
2017-Apr-24 10:31N 51°53' E 004°27'0 0.0
2017-Apr-24 10:01N 51°53' E 004°27'0 0.0
2017-Apr-24 09:31N 51°53' E 004°27'0 0.0
2017-Apr-24 09:01N 51°53' E 004°27'0 0.0
2017-Apr-24 08:31N 51°53' E 004°27'0 0.0
2017-Apr-24 08:01N 51°53' E 004°27'0 0.0
2017-Apr-24 07:31N 51°53' E 004°27'0 0.0
2017-Apr-24 07:01N 51°53' E 004°27'0 0.0
2017-Apr-24 06:31N 51°53' E 004°27'0 0.0
2017-Apr-24 06:01N 51°53' E 004°27'0 0.0
2017-Apr-24 05:31N 51°53' E 004°27'0 0.0
2017-Apr-24 05:00N 51°53' E 004°27'0 0.0
2017-Apr-24 04:31N 51°53' E 004°27'0 0.0
2017-Apr-24 04:01N 51°53' E 004°27'0 0.0
2017-Apr-24 03:31N 51°53' E 004°27'0 0.0
2017-Apr-24 03:01N 51°53' E 004°27'0 0.0
2017-Apr-24 02:31N 51°53' E 004°27'0 0.0
2017-Apr-24 02:00N 51°53' E 004°27'0 0.0
2017-Apr-24 01:31N 51°53' E 004°27'0 0.0
2017-Apr-24 01:01N 51°53' E 004°27'0 0.0
2017-Apr-24 00:31N 51°53' E 004°27'0 0.0
2017-Apr-24 00:01N 51°53' E 004°27'0 0.0
2017-Apr-23 23:31N 51°53' E 004°27'0 0.0
2017-Apr-23 23:01N 51°53' E 004°27'0 0.0
2017-Apr-23 22:31N 51°53' E 004°27'0 0.0
2017-Apr-23 22:01N 51°53' E 004°27'0 0.0
2017-Apr-23 21:31N 51°53' E 004°27'0 0.0
2017-Apr-23 21:01N 51°53' E 004°27'0 0.0
2017-Apr-23 20:30N 51°53' E 004°27'0 0.0
2017-Apr-23 20:01N 51°53' E 004°27'0 0.0
2017-Apr-23 19:31N 51°53' E 004°27'0 0.0
2017-Apr-23 19:01N 51°53' E 004°27'0 0.0
2017-Apr-23 18:31N 51°53' E 004°27'0 0.0
2017-Apr-23 18:00N 51°53' E 004°27'0 0.0
2017-Apr-23 17:30N 51°53' E 004°27'0 0.0
2017-Apr-23 17:01N 51°53' E 004°27'0 0.0
2017-Apr-23 16:31N 51°53' E 004°27'0 0.0
2017-Apr-23 16:01N 51°53' E 004°27'0 0.0
2017-Apr-23 15:31N 51°53' E 004°27'0 0.0
2017-Apr-23 15:00N 51°53' E 004°27'0 0.0
2017-Apr-23 14:01N 51°53' E 004°27'0 0.0
2017-Apr-23 13:31N 51°53' E 004°27'0 0.0
2017-Apr-23 13:01N 51°53' E 004°27'0 0.0
2017-Apr-23 12:31N 51°53' E 004°27'0 0.0
2017-Apr-23 12:01N 51°53' E 004°27'0 0.0
2017-Apr-23 11:31N 51°53' E 004°27'0 0.0
2017-Apr-23 11:01N 51°53' E 004°27'0 0.0
2017-Apr-23 10:31N 51°53' E 004°27'0 0.0
2017-Apr-23 10:01N 51°53' E 004°27'0 0.0
2017-Apr-23 09:31N 51°53' E 004°27'0 0.0
2017-Apr-23 09:01N 51°53' E 004°27'0 0.0
2017-Apr-23 08:31N 51°53' E 004°27'0 0.0
2017-Apr-23 08:01N 51°53' E 004°27'0 0.0
2017-Apr-23 07:31N 51°53' E 004°27'0 0.0
2017-Apr-23 07:01N 51°53' E 004°27'0 0.0
2017-Apr-23 06:31N 51°53' E 004°27'0 0.0
2017-Apr-23 06:01N 51°53' E 004°27'0 0.0
2017-Apr-23 05:31N 51°53' E 004°27'0 0.0
2017-Apr-23 05:01N 51°53' E 004°27'0 0.0
2017-Apr-23 04:31N 51°53' E 004°27'0 0.0
2017-Apr-23 04:01N 51°53' E 004°27'0 0.0
2017-Apr-23 03:30N 51°53' E 004°27'0 0.0
2017-Apr-23 03:01N 51°53' E 004°27'0 0.0
2017-Apr-23 02:31N 51°53' E 004°27'0 0.0
2017-Apr-23 02:01N 51°53' E 004°27'0 0.0
2017-Apr-23 01:31N 51°53' E 004°27'0 0.0
2017-Apr-23 01:01N 51°53' E 004°27'0 0.0
2017-Apr-23 00:31N 51°53' E 004°27'0 0.0
2017-Apr-23 00:00N 51°53' E 004°27'0 0.0
2017-Apr-22 23:31N 51°53' E 004°27'0 0.0
2017-Apr-22 23:01N 51°53' E 004°27'0 0.0
2017-Apr-22 22:31N 51°53' E 004°27'0 0.0
2017-Apr-22 22:01N 51°53' E 004°27'0 0.0
2017-Apr-22 21:31N 51°53' E 004°27'0 0.0
2017-Apr-22 21:01N 51°53' E 004°27'0 0.0
2017-Apr-22 20:30N 51°53' E 004°27'0 0.0
2017-Apr-22 20:00N 51°53' E 004°27'0 0.0
2017-Apr-22 19:31N 51°53' E 004°27'0 0.0
2017-Apr-22 19:01N 51°53' E 004°27'0 0.0
2017-Apr-22 18:31N 51°53' E 004°27'0 0.0
2017-Apr-22 18:01N 51°53' E 004°27'0 0.0
2017-Apr-22 17:31N 51°53' E 004°27'0 0.0
2017-Apr-22 17:00N 51°53' E 004°27'0 0.0
2017-Apr-22 16:31N 51°53' E 004°27'0 0.0
2017-Apr-22 16:01N 51°53' E 004°27'0 0.0
2017-Apr-22 15:31N 51°53' E 004°27'0 0.0
2017-Apr-22 15:00N 51°53' E 004°27'0 0.0
2017-Apr-22 14:31N 51°53' E 004°27'0 0.0
2017-Apr-22 13:30N 51°53' E 004°27'0 0.0
2017-Apr-22 13:01N 51°53' E 004°27'0 0.0
2017-Apr-22 12:31N 51°53' E 004°27'0 0.0
2017-Apr-22 12:01N 51°53' E 004°27'0 0.0
2017-Apr-22 11:30N 51°53' E 004°27'0 0.0
2017-Apr-22 11:01N 51°53' E 004°27'0 0.0
2017-Apr-22 10:31N 51°53' E 004°27'0 0.0
2017-Apr-22 10:00N 51°53' E 004°27'0 0.0
2017-Apr-22 09:31N 51°53' E 004°27'0 0.0
2017-Apr-22 09:01N 51°53' E 004°27'0 0.2
2017-Apr-22 08:31N 51°53' E 004°27'2 3.7
2017-Apr-22 08:01N 51°54' E 004°24'4 8.4
2017-Apr-22 07:31N 51°54' E 004°18'4 8.0
2017-Apr-22 07:01N 51°56' E 004°12'4 7.8
2017-Apr-22 06:31N 51°58' E 004°07'4 7.7
2017-Apr-22 06:01N 51°60' E 004°01'4 7.5
2017-Apr-22 05:31N 52°00' E 003°55'15 6.8
2017-Apr-22 03:18N 52°07' E 003°33'2 7.2
2017-Apr-22 03:00N 52°08' E 003°30'4 7.2
2017-Apr-22 02:30N 52°10' E 003°25'4 6.9
2017-Apr-22 01:59N 52°12' E 003°21'3 7.2
2017-Apr-22 01:30N 52°15' E 003°19'  
2017-Apr-19 14:46N 52°07' E 003°38'2 5.6
2017-Apr-19 14:26N 52°06' E 003°41'5 5.5
2017-Apr-19 13:30N 52°03' E 003°48'3 5.6
2017-Apr-19 13:00N 52°03' E 003°53'3 5.5
2017-Apr-19 12:31N 52°02' E 003°57'3 6.9
2017-Apr-19 12:01N 51°60' E 004°02'4 8.7
2017-Apr-19 11:31N 51°58' E 004°08'5 9.4
2017-Apr-19 11:01N 51°55' E 004°14'4 8.5
2017-Apr-19 10:31N 51°54' E 004°21'3 7.0
2017-Apr-19 10:01N 51°54' E 004°26'1 1.6
2017-Apr-19 09:30N 51°53' E 004°27'0 0.1
2017-Apr-19 09:00N 51°53' E 004°27'0 0.0
2017-Apr-19 08:31N 51°53' E 004°27'0 0.0
2017-Apr-19 08:00N 51°53' E 004°27'0 0.0
2017-Apr-19 07:30N 51°53' E 004°27'0 0.0
2017-Apr-19 07:01N 51°53' E 004°27'0 0.0
2017-Apr-19 06:31N 51°53' E 004°27'0 0.0
2017-Apr-19 06:01N 51°53' E 004°27'  
Track history (hours):
 
Tides and Currents Weather Stations Pressure Air Temp Water Temp Dewpoint Dewpoint Depression Visibility Wind Speed Wind Dir Waves Ship Positions

Maimiti

Last reported at 2017-Apr-29 05:47 UTC. Time now 2017-Apr-29 09:24 UTC.
Position N 53°05' E 002°33'.

Length 35 m; draft 7.1 m.

Type: Tug. MMSI: 244850959.

Date/timePositionNaut miles runAvg speedWind from/ knotsBaromVisibWave heightAir tempDewpointWater temp
2017-Apr-29 05:47N 53°05' E 002°33'72 6.7
2017-Apr-28 19:02N 52°06' E 003°40'1 8.4
2017-Apr-28 18:57N 52°06' E 003°41'4 8.4
2017-Apr-28 18:30N 52°04' E 003°47'4 8.1
2017-Apr-28 18:01N 52°04' E 003°53'2 4.0
2017-Apr-28 17:31N 52°02' E 003°55'3 5.9
2017-Apr-28 17:00N 52°01' E 003°59'4 8.1
2017-Apr-28 16:31N 51°59' E 004°05'4 7.2
2017-Apr-28 16:01N 51°57' E 004°10'3 5.9
2017-Apr-28 15:30N 51°55' E 004°14'2 5.0
2017-Apr-28 15:01N 51°54' E 004°17'6 5.6
2017-Apr-28 14:01N 51°53' E 004°27'0 0.9
2017-Apr-28 13:31N 51°53' E 004°27'0 0.0
2017-Apr-28 13:01N 51°53' E 004°27'0 0.0
2017-Apr-28 12:31N 51°53' E 004°27'0 0.0
2017-Apr-28 12:00N 51°53' E 004°27'0 0.0
2017-Apr-28 11:31N 51°53' E 004°27'0 0.0
2017-Apr-28 11:01N 51°53' E 004°27'0 0.0
2017-Apr-28 10:31N 51°53' E 004°27'0 0.1
2017-Apr-28 10:01N 51°53' E 004°27'0 0.0
2017-Apr-28 09:30N 51°53' E 004°27'0 0.0
2017-Apr-28 09:01N 51°53' E 004°27'0 0.0
2017-Apr-28 08:30N 51°53' E 004°27'0 0.0
2017-Apr-28 08:01N 51°53' E 004°27'0 0.0
2017-Apr-28 07:30N 51°53' E 004°27'0 0.0
2017-Apr-28 07:01N 51°53' E 004°27'0 0.0
2017-Apr-28 06:30N 51°53' E 004°27'0 0.1
2017-Apr-28 06:01N 51°53' E 004°27'0 0.0
2017-Apr-28 05:31N 51°53' E 004°27'0 0.0
2017-Apr-28 05:01N 51°53' E 004°27'0 0.0
2017-Apr-28 04:31N 51°53' E 004°27'0 0.0
2017-Apr-28 04:00N 51°53' E 004°27'0 0.0
2017-Apr-28 03:31N 51°53' E 004°27'0 0.0
2017-Apr-28 03:01N 51°53' E 004°27'0 0.0
2017-Apr-28 02:31N 51°53' E 004°27'0 0.0
2017-Apr-28 01:31N 51°53' E 004°27'0 0.0
2017-Apr-28 01:01N 51°53' E 004°27'0 0.0
2017-Apr-28 00:31N 51°53' E 004°27'0 0.0
2017-Apr-28 00:01N 51°53' E 004°27'0 0.0
2017-Apr-27 23:31N 51°53' E 004°27'0 0.0
2017-Apr-27 23:00N 51°53' E 004°27'0 0.0
2017-Apr-27 22:31N 51°53' E 004°27'0 0.0
2017-Apr-27 22:01N 51°53' E 004°27'0 0.0
2017-Apr-27 21:31N 51°53' E 004°27'0 0.0
2017-Apr-27 21:01N 51°53' E 004°27'0 0.0
2017-Apr-27 20:31N 51°53' E 004°27'0 0.0
2017-Apr-27 20:01N 51°53' E 004°27'0 0.0
2017-Apr-27 19:31N 51°53' E 004°27'0 0.0
2017-Apr-27 19:01N 51°53' E 004°27'0 0.0
2017-Apr-27 18:31N 51°53' E 004°27'0 0.0
2017-Apr-27 17:31N 51°53' E 004°27'0 0.0
2017-Apr-27 17:01N 51°53' E 004°27'0 0.0
2017-Apr-27 16:31N 51°53' E 004°27'0 0.0
2017-Apr-27 16:01N 51°53' E 004°27'0 0.0
2017-Apr-27 15:31N 51°53' E 004°27'0 0.0
2017-Apr-27 15:01N 51°53' E 004°27'0 0.0
2017-Apr-27 14:01N 51°53' E 004°27'0 0.0
2017-Apr-27 13:31N 51°53' E 004°27'0 0.0
2017-Apr-27 13:01N 51°53' E 004°27'0 0.0
2017-Apr-27 12:31N 51°53' E 004°27'0 0.0
2017-Apr-27 12:01N 51°53' E 004°27'0 0.0
2017-Apr-27 11:31N 51°53' E 004°27'0 0.0
2017-Apr-27 11:01N 51°53' E 004°27'0 0.0
2017-Apr-27 10:31N 51°53' E 004°27'0 0.0
2017-Apr-27 10:01N 51°53' E 004°27'0 0.0
2017-Apr-27 09:31N 51°53' E 004°27'0 0.0
2017-Apr-27 09:01N 51°53' E 004°27'0 0.0
2017-Apr-27 08:31N 51°53' E 004°27'0 0.0
2017-Apr-27 08:01N 51°53' E 004°27'0 0.0
2017-Apr-27 07:31N 51°53' E 004°27'0 0.0
2017-Apr-27 07:01N 51°53' E 004°27'0 0.0
2017-Apr-27 06:31N 51°53' E 004°27'0 0.0
2017-Apr-27 06:01N 51°53' E 004°27'0 0.0
2017-Apr-27 05:31N 51°53' E 004°27'0 0.0
2017-Apr-27 05:01N 51°53' E 004°27'0 0.0
2017-Apr-27 04:30N 51°53' E 004°27'0 0.0
2017-Apr-27 04:01N 51°53' E 004°27'0 0.0
2017-Apr-27 03:31N 51°53' E 004°27'0 0.0
2017-Apr-27 03:01N 51°53' E 004°27'0 0.0
2017-Apr-27 02:30N 51°53' E 004°27'0 0.0
2017-Apr-27 02:01N 51°53' E 004°27'0 0.0
2017-Apr-27 01:31N 51°53' E 004°27'0 0.0
2017-Apr-27 01:01N 51°53' E 004°27'0 0.0
2017-Apr-27 00:31N 51°53' E 004°27'0 0.0
2017-Apr-27 00:01N 51°53' E 004°27'0 0.0
2017-Apr-26 23:31N 51°53' E 004°27'0 0.0
2017-Apr-26 23:01N 51°53' E 004°27'0 0.0
2017-Apr-26 22:30N 51°53' E 004°27'0 0.0
2017-Apr-26 22:01N 51°53' E 004°27'0 0.0
2017-Apr-26 21:31N 51°53' E 004°27'0 0.0
2017-Apr-26 21:01N 51°53' E 004°27'0 0.0
2017-Apr-26 20:31N 51°53' E 004°27'0 0.0
2017-Apr-26 20:01N 51°53' E 004°27'0 0.0
2017-Apr-26 19:31N 51°53' E 004°27'0 0.0
2017-Apr-26 19:01N 51°53' E 004°27'0 0.0
2017-Apr-26 18:30N 51°53' E 004°27'0 0.0
2017-Apr-26 18:01N 51°53' E 004°27'0 0.0
2017-Apr-26 17:31N 51°53' E 004°27'0 0.0
2017-Apr-26 17:01N 51°53' E 004°27'0 0.0
2017-Apr-26 16:31N 51°53' E 004°27'0 0.0
2017-Apr-26 16:01N 51°53' E 004°27'0 0.0
2017-Apr-26 15:31N 51°53' E 004°27'0 0.0
2017-Apr-26 15:01N 51°53' E 004°27'0 0.0
2017-Apr-26 14:31N 51°53' E 004°27'0 0.0
2017-Apr-26 13:31N 51°53' E 004°27'0 0.0
2017-Apr-26 13:01N 51°53' E 004°27'0 0.0
2017-Apr-26 12:31N 51°53' E 004°27'0 0.0
2017-Apr-26 12:00N 51°53' E 004°27'0 0.0
2017-Apr-26 11:31N 51°53' E 004°27'0 0.0
2017-Apr-26 11:00N 51°53' E 004°27'0 0.0
2017-Apr-26 10:31N 51°53' E 004°27'0 0.0
2017-Apr-26 10:01N 51°53' E 004°27'0 0.0
2017-Apr-26 09:31N 51°53' E 004°27'0 0.0
2017-Apr-26 09:01N 51°53' E 004°27'0 0.0
2017-Apr-26 08:31N 51°53' E 004°27'0 0.1
2017-Apr-26 08:00N 51°53' E 004°27'0 0.0
2017-Apr-26 07:31N 51°53' E 004°27'0 0.0
2017-Apr-26 07:01N 51°53' E 004°27'0 0.0
2017-Apr-26 06:31N 51°53' E 004°27'0 0.0
2017-Apr-26 06:01N 51°53' E 004°27'0 0.0
2017-Apr-26 05:31N 51°53' E 004°27'0 0.0
2017-Apr-26 05:01N 51°53' E 004°27'0 0.0
2017-Apr-26 04:31N 51°53' E 004°27'0 0.0
2017-Apr-26 04:01N 51°53' E 004°27'0 0.0
2017-Apr-26 03:31N 51°53' E 004°27'0 0.0
2017-Apr-26 03:00N 51°53' E 004°27'0 0.0
2017-Apr-26 02:31N 51°53' E 004°27'0 0.0
2017-Apr-26 02:00N 51°53' E 004°27'0 0.0
2017-Apr-26 01:30N 51°53' E 004°27'0 0.0
2017-Apr-26 01:01N 51°53' E 004°27'0 0.0
2017-Apr-26 00:31N 51°53' E 004°27'0 0.0
2017-Apr-26 00:01N 51°53' E 004°27'0 0.0
2017-Apr-25 23:30N 51°53' E 004°27'0 0.0
2017-Apr-25 22:31N 51°53' E 004°27'0 0.0
2017-Apr-25 22:01N 51°53' E 004°27'0 0.0
2017-Apr-25 21:31N 51°53' E 004°27'0 0.0
2017-Apr-25 21:01N 51°53' E 004°27'0 0.0
2017-Apr-25 20:31N 51°53' E 004°27'0 0.0
2017-Apr-25 20:01N 51°53' E 004°27'0 0.0
2017-Apr-25 19:30N 51°53' E 004°27'0 0.0
2017-Apr-25 19:01N 51°53' E 004°27'0 0.0
2017-Apr-25 18:31N 51°53' E 004°27'0 0.0
2017-Apr-25 18:01N 51°53' E 004°27'0 0.0
2017-Apr-25 17:31N 51°53' E 004°27'0 0.0
2017-Apr-25 17:01N 51°53' E 004°27'0 0.0
2017-Apr-25 16:31N 51°53' E 004°27'0 0.0
2017-Apr-25 16:01N 51°53' E 004°27'0 0.0
2017-Apr-25 15:31N 51°53' E 004°27'0 0.0
2017-Apr-25 15:00N 51°53' E 004°27'1 1.5
2017-Apr-25 14:01N 51°54' E 004°25'0 0.0
2017-Apr-25 13:31N 51°54' E 004°25'0 0.0
2017-Apr-25 13:01N 51°54' E 004°25'0 0.0
2017-Apr-25 12:31N 51°54' E 004°25'0 0.0
2017-Apr-25 12:00N 51°54' E 004°25'0 0.0
2017-Apr-25 11:31N 51°54' E 004°25'0 0.0
2017-Apr-25 11:01N 51°54' E 004°25'0 0.0
2017-Apr-25 10:31N 51°54' E 004°25'0 0.0
2017-Apr-25 10:00N 51°54' E 004°25'0 0.0
2017-Apr-25 09:31N 51°54' E 004°25'0 0.0
2017-Apr-25 09:00N 51°54' E 004°25'0 0.0
2017-Apr-25 08:31N 51°54' E 004°25'0 0.0
2017-Apr-25 08:01N 51°54' E 004°25'0 0.0
2017-Apr-25 07:31N 51°54' E 004°25'0 0.0
2017-Apr-25 07:01N 51°54' E 004°25'0 0.0
2017-Apr-25 06:31N 51°54' E 004°25'0 0.0
2017-Apr-25 06:00N 51°54' E 004°25'1 2.8
2017-Apr-25 05:31N 51°53' E 004°27'0 0.2
2017-Apr-25 05:01N 51°53' E 004°27'0 0.0
2017-Apr-25 04:30N 51°53' E 004°27'0 0.0
2017-Apr-25 04:01N 51°53' E 004°27'0 0.0
2017-Apr-25 03:31N 51°53' E 004°27'0 0.0
2017-Apr-25 03:01N 51°53' E 004°27'0 0.0
2017-Apr-25 02:31N 51°53' E 004°27'0 0.0
2017-Apr-25 02:00N 51°53' E 004°27'0 0.0
2017-Apr-25 01:30N 51°53' E 004°27'0 0.0
2017-Apr-25 01:01N 51°53' E 004°27'0 0.0
2017-Apr-25 00:31N 51°53' E 004°27'0 0.0
2017-Apr-25 00:00N 51°53' E 004°27'0 0.0
2017-Apr-24 23:31N 51°53' E 004°27'0 0.0
2017-Apr-24 23:01N 51°53' E 004°27'0 0.0
2017-Apr-24 22:31N 51°53' E 004°27'0 0.0
2017-Apr-24 22:00N 51°53' E 004°27'0 0.0
2017-Apr-24 21:31N 51°53' E 004°27'0 0.0
2017-Apr-24 21:00N 51°53' E 004°27'0 0.0
2017-Apr-24 20:31N 51°53' E 004°27'0 0.0
2017-Apr-24 20:01N 51°53' E 004°27'0 0.0
2017-Apr-24 19:31N 51°53' E 004°27'0 0.0
2017-Apr-24 19:01N 51°53' E 004°27'0 0.0
2017-Apr-24 18:31N 51°53' E 004°27'0 0.0
2017-Apr-24 18:01N 51°53' E 004°27'0 0.0
2017-Apr-24 17:31N 51°53' E 004°27'0 0.0
2017-Apr-24 17:00N 51°53' E 004°27'0 0.0
2017-Apr-24 16:31N 51°53' E 004°27'0 0.0
2017-Apr-24 16:01N 51°53' E 004°27'0 0.0
2017-Apr-24 15:31N 51°53' E 004°27'0 0.0
2017-Apr-24 15:01N 51°53' E 004°27'0 0.0
2017-Apr-24 14:31N 51°53' E 004°27'0 0.0
2017-Apr-24 13:30N 51°53' E 004°27'0 0.0
2017-Apr-24 13:01N 51°53' E 004°27'0 0.0
2017-Apr-24 12:31N 51°53' E 004°27'0 0.0
2017-Apr-24 12:01N 51°53' E 004°27'0 0.0
2017-Apr-24 11:31N 51°53' E 004°27'0 0.0
2017-Apr-24 11:01N 51°53' E 004°27'0 0.0
2017-Apr-24 10:31N 51°53' E 004°27'0 0.0
2017-Apr-24 10:01N 51°53' E 004°27'0 0.0
2017-Apr-24 09:31N 51°53' E 004°27'0 0.0
2017-Apr-24 09:01N 51°53' E 004°27'0 0.0
2017-Apr-24 08:31N 51°53' E 004°27'0 0.0
2017-Apr-24 08:01N 51°53' E 004°27'0 0.0
2017-Apr-24 07:31N 51°53' E 004°27'0 0.0
2017-Apr-24 07:01N 51°53' E 004°27'0 0.0
2017-Apr-24 06:31N 51°53' E 004°27'0 0.0
2017-Apr-24 06:01N 51°53' E 004°27'0 0.0
2017-Apr-24 05:31N 51°53' E 004°27'0 0.0
2017-Apr-24 05:00N 51°53' E 004°27'0 0.0
2017-Apr-24 04:31N 51°53' E 004°27'0 0.0
2017-Apr-24 04:01N 51°53' E 004°27'0 0.0
2017-Apr-24 03:31N 51°53' E 004°27'0 0.0
2017-Apr-24 03:01N 51°53' E 004°27'0 0.0
2017-Apr-24 02:31N 51°53' E 004°27'0 0.0
2017-Apr-24 02:00N 51°53' E 004°27'0 0.0
2017-Apr-24 01:31N 51°53' E 004°27'0 0.0
2017-Apr-24 01:01N 51°53' E 004°27'0 0.0
2017-Apr-24 00:31N 51°53' E 004°27'0 0.0
2017-Apr-24 00:01N 51°53' E 004°27'0 0.0
2017-Apr-23 23:31N 51°53' E 004°27'0 0.0
2017-Apr-23 23:01N 51°53' E 004°27'0 0.0
2017-Apr-23 22:31N 51°53' E 004°27'0 0.0
2017-Apr-23 22:01N 51°53' E 004°27'0 0.0
2017-Apr-23 21:31N 51°53' E 004°27'0 0.0
2017-Apr-23 21:01N 51°53' E 004°27'0 0.0
2017-Apr-23 20:30N 51°53' E 004°27'0 0.0
2017-Apr-23 20:01N 51°53' E 004°27'0 0.0
2017-Apr-23 19:31N 51°53' E 004°27'0 0.0
2017-Apr-23 19:01N 51°53' E 004°27'0 0.0
2017-Apr-23 18:31N 51°53' E 004°27'0 0.0
2017-Apr-23 18:00N 51°53' E 004°27'0 0.0
2017-Apr-23 17:30N 51°53' E 004°27'0 0.0
2017-Apr-23 17:01N 51°53' E 004°27'0 0.0
2017-Apr-23 16:31N 51°53' E 004°27'0 0.0
2017-Apr-23 16:01N 51°53' E 004°27'0 0.0
2017-Apr-23 15:31N 51°53' E 004°27'0 0.0
2017-Apr-23 15:00N 51°53' E 004°27'0 0.0
2017-Apr-23 14:01N 51°53' E 004°27'0 0.0
2017-Apr-23 13:31N 51°53' E 004°27'0 0.0
2017-Apr-23 13:01N 51°53' E 004°27'0 0.0
2017-Apr-23 12:31N 51°53' E 004°27'0 0.0
2017-Apr-23 12:01N 51°53' E 004°27'0 0.0
2017-Apr-23 11:31N 51°53' E 004°27'0 0.0
2017-Apr-23 11:01N 51°53' E 004°27'0 0.0
2017-Apr-23 10:31N 51°53' E 004°27'0 0.0
2017-Apr-23 10:01N 51°53' E 004°27'0 0.0
2017-Apr-23 09:31N 51°53' E 004°27'0 0.0
2017-Apr-23 09:01N 51°53' E 004°27'0 0.0
2017-Apr-23 08:31N 51°53' E 004°27'0 0.0
2017-Apr-23 08:01N 51°53' E 004°27'0 0.0
2017-Apr-23 07:31N 51°53' E 004°27'0 0.0
2017-Apr-23 07:01N 51°53' E 004°27'0 0.0
2017-Apr-23 06:31N 51°53' E 004°27'0 0.0
2017-Apr-23 06:01N 51°53' E 004°27'0 0.0
2017-Apr-23 05:31N 51°53' E 004°27'0 0.0
2017-Apr-23 05:01N 51°53' E 004°27'0 0.0
2017-Apr-23 04:31N 51°53' E 004°27'0 0.0
2017-Apr-23 04:01N 51°53' E 004°27'0 0.0
2017-Apr-23 03:30N 51°53' E 004°27'0 0.0
2017-Apr-23 03:01N 51°53' E 004°27'0 0.0
2017-Apr-23 02:31N 51°53' E 004°27'0 0.0
2017-Apr-23 02:01N 51°53' E 004°27'0 0.0
2017-Apr-23 01:31N 51°53' E 004°27'0 0.0
2017-Apr-23 01:01N 51°53' E 004°27'0 0.0
2017-Apr-23 00:31N 51°53' E 004°27'0 0.0
2017-Apr-23 00:00N 51°53' E 004°27'0 0.0
2017-Apr-22 23:31N 51°53' E 004°27'0 0.0
2017-Apr-22 23:01N 51°53' E 004°27'0 0.0
2017-Apr-22 22:31N 51°53' E 004°27'0 0.0
2017-Apr-22 22:01N 51°53' E 004°27'0 0.0
2017-Apr-22 21:31N 51°53' E 004°27'0 0.0
2017-Apr-22 21:01N 51°53' E 004°27'0 0.0
2017-Apr-22 20:30N 51°53' E 004°27'0 0.0
2017-Apr-22 20:00N 51°53' E 004°27'0 0.0
2017-Apr-22 19:31N 51°53' E 004°27'0 0.0
2017-Apr-22 19:01N 51°53' E 004°27'0 0.0
2017-Apr-22 18:31N 51°53' E 004°27'0 0.0
2017-Apr-22 18:01N 51°53' E 004°27'0 0.0
2017-Apr-22 17:31N 51°53' E 004°27'0 0.0
2017-Apr-22 17:00N 51°53' E 004°27'0 0.0
2017-Apr-22 16:31N 51°53' E 004°27'0 0.0
2017-Apr-22 16:01N 51°53' E 004°27'0 0.0
2017-Apr-22 15:31N 51°53' E 004°27'0 0.0
2017-Apr-22 15:00N 51°53' E 004°27'0 0.0
2017-Apr-22 14:31N 51°53' E 004°27'0 0.0
2017-Apr-22 13:30N 51°53' E 004°27'0 0.0
2017-Apr-22 13:01N 51°53' E 004°27'0 0.0
2017-Apr-22 12:31N 51°53' E 004°27'0 0.0
2017-Apr-22 12:01N 51°53' E 004°27'0 0.0
2017-Apr-22 11:30N 51°53' E 004°27'0 0.0
2017-Apr-22 11:01N 51°53' E 004°27'0 0.0
2017-Apr-22 10:31N 51°53' E 004°27'0 0.0
2017-Apr-22 10:00N 51°53' E 004°27'0 0.0
2017-Apr-22 09:31N 51°53' E 004°27'0 0.0
2017-Apr-22 09:01N 51°53' E 004°27'0 0.2
2017-Apr-22 08:31N 51°53' E 004°27'2 3.7
2017-Apr-22 08:01N 51°54' E 004°24'4 8.4
2017-Apr-22 07:31N 51°54' E 004°18'4 8.0
2017-Apr-22 07:01N 51°56' E 004°12'4 7.8
2017-Apr-22 06:31N 51°58' E 004°07'4 7.7
2017-Apr-22 06:01N 51°60' E 004°01'4 7.5
2017-Apr-22 05:31N 52°00' E 003°55'15 6.8
2017-Apr-22 03:18N 52°07' E 003°33'2 7.2
2017-Apr-22 03:00N 52°08' E 003°30'4 7.2
2017-Apr-22 02:30N 52°10' E 003°25'4 6.9
2017-Apr-22 01:59N 52°12' E 003°21'3 7.2
2017-Apr-22 01:30N 52°15' E 003°19'  
2017-Apr-19 14:46N 52°07' E 003°38'2 5.6
2017-Apr-19 14:26N 52°06' E 003°41'5 5.5
2017-Apr-19 13:30N 52°03' E 003°48'3 5.6
2017-Apr-19 13:00N 52°03' E 003°53'3 5.5
2017-Apr-19 12:31N 52°02' E 003°57'3 6.9
2017-Apr-19 12:01N 51°60' E 004°02'4 8.7
2017-Apr-19 11:31N 51°58' E 004°08'5 9.4
2017-Apr-19 11:01N 51°55' E 004°14'4 8.5
2017-Apr-19 10:31N 51°54' E 004°21'3 7.0
2017-Apr-19 10:01N 51°54' E 004°26'1 1.6
2017-Apr-19 09:30N 51°53' E 004°27'0 0.1
2017-Apr-19 09:00N 51°53' E 004°27'0 0.0
2017-Apr-19 08:31N 51°53' E 004°27'0 0.0
2017-Apr-19 08:00N 51°53' E 004°27'0 0.0
2017-Apr-19 07:30N 51°53' E 004°27'0 0.0
2017-Apr-19 07:01N 51°53' E 004°27'0 0.0
2017-Apr-19 06:31N 51°53' E 004°27'0 0.0
2017-Apr-19 06:01N 51°53' E 004°27'  

Dump ship's entire track history